sensor_id;sensor_type;location;lat;lon;timestamp;P1;durP1;ratioP1;P2;durP2;ratioP2
29412;SDS011;16389;50.126;8.450;2023-03-21T00:00:35;3.33;;;1.70;;
29412;SDS011;16389;50.126;8.450;2023-03-21T00:03:01;2.33;;;1.40;;
29412;SDS011;16389;50.126;8.450;2023-03-21T00:05:26;5.07;;;1.25;;
29412;SDS011;16389;50.126;8.450;2023-03-21T00:07:52;2.67;;;1.40;;
29412;SDS011;16389;50.126;8.450;2023-03-21T00:10:18;4.75;;;1.60;;
29412;SDS011;16389;50.126;8.450;2023-03-21T00:12:44;4.25;;;1.30;;
29412;SDS011;16389;50.126;8.450;2023-03-21T00:15:10;3.83;;;1.40;;
29412;SDS011;16389;50.126;8.450;2023-03-21T00:17:37;4.03;;;1.65;;
29412;SDS011;16389;50.126;8.450;2023-03-21T00:20:04;3.08;;;1.30;;
29412;SDS011;16389;50.126;8.450;2023-03-21T00:22:35;5.40;;;2.08;;
29412;SDS011;16389;50.126;8.450;2023-03-21T00:25:01;2.25;;;1.30;;
29412;SDS011;16389;50.126;8.450;2023-03-21T00:27:27;3.83;;;1.67;;
29412;SDS011;16389;50.126;8.450;2023-03-21T00:29:52;6.40;;;1.60;;
29412;SDS011;16389;50.126;8.450;2023-03-21T00:32:18;5.57;;;1.13;;
29412;SDS011;16389;50.126;8.450;2023-03-21T00:34:45;2.97;;;1.58;;
29412;SDS011;16389;50.126;8.450;2023-03-21T00:37:11;5.35;;;1.55;;
29412;SDS011;16389;50.126;8.450;2023-03-21T00:39:40;1.60;;;1.40;;
29412;SDS011;16389;50.126;8.450;2023-03-21T00:42:07;3.70;;;1.10;;
29412;SDS011;16389;50.126;8.450;2023-03-21T00:44:33;1.60;;;1.30;;
29412;SDS011;16389;50.126;8.450;2023-03-21T00:47:03;3.85;;;1.80;;
29412;SDS011;16389;50.126;8.450;2023-03-21T00:49:29;4.97;;;1.50;;
29412;SDS011;16389;50.126;8.450;2023-03-21T00:51:58;3.05;;;1.85;;
29412;SDS011;16389;50.126;8.450;2023-03-21T00:54:24;2.35;;;1.30;;
29412;SDS011;16389;50.126;8.450;2023-03-21T00:56:50;3.45;;;1.65;;
29412;SDS011;16389;50.126;8.450;2023-03-21T00:59:16;2.47;;;1.65;;
29412;SDS011;16389;50.126;8.450;2023-03-21T01:01:42;4.03;;;1.30;;
29412;SDS011;16389;50.126;8.450;2023-03-21T01:04:10;4.43;;;1.58;;
29412;SDS011;16389;50.126;8.450;2023-03-21T01:06:38;2.53;;;1.25;;
29412;SDS011;16389;50.126;8.450;2023-03-21T01:09:26;1.67;;;1.38;;
29412;SDS011;16389;50.126;8.450;2023-03-21T01:11:51;4.53;;;1.60;;
29412;SDS011;16389;50.126;8.450;2023-03-21T01:14:18;2.58;;;1.30;;
29412;SDS011;16389;50.126;8.450;2023-03-21T01:16:46;1.85;;;1.13;;
29412;SDS011;16389;50.126;8.450;2023-03-21T01:19:14;2.45;;;1.30;;
29412;SDS011;16389;50.126;8.450;2023-03-21T01:21:42;3.08;;;1.55;;
29412;SDS011;16389;50.126;8.450;2023-03-21T01:24:08;1.83;;;1.02;;
29412;SDS011;16389;50.126;8.450;2023-03-21T01:26:35;2.95;;;1.25;;
29412;SDS011;16389;50.126;8.450;2023-03-21T01:29:02;6.63;;;1.77;;
29412;SDS011;16389;50.126;8.450;2023-03-21T01:31:31;1.67;;;1.17;;
29412;SDS011;16389;50.126;8.450;2023-03-21T01:33:56;3.45;;;1.02;;
29412;SDS011;16389;50.126;8.450;2023-03-21T01:36:23;1.20;;;1.00;;
29412;SDS011;16389;50.126;8.450;2023-03-21T01:38:50;2.30;;;1.13;;
29412;SDS011;16389;50.126;8.450;2023-03-21T01:41:29;6.82;;;1.50;;
29412;SDS011;16389;50.126;8.450;2023-03-21T01:43:57;4.53;;;1.60;;
29412;SDS011;16389;50.126;8.450;2023-03-21T01:46:33;2.80;;;1.10;;
29412;SDS011;16389;50.126;8.450;2023-03-21T01:49:08;1.73;;;1.05;;
29412;SDS011;16389;50.126;8.450;2023-03-21T01:51:35;1.58;;;1.20;;
29412;SDS011;16389;50.126;8.450;2023-03-21T01:54:05;2.03;;;1.27;;
29412;SDS011;16389;50.126;8.450;2023-03-21T01:56:39;3.28;;;1.88;;
29412;SDS011;16389;50.126;8.450;2023-03-21T01:59:11;1.85;;;1.20;;
29412;SDS011;16389;50.126;8.450;2023-03-21T02:01:41;1.95;;;1.25;;
29412;SDS011;16389;50.126;8.450;2023-03-21T02:04:09;4.45;;;1.20;;
29412;SDS011;16389;50.126;8.450;2023-03-21T02:06:37;3.00;;;1.67;;
29412;SDS011;16389;50.126;8.450;2023-03-21T02:09:13;2.97;;;1.58;;
29412;SDS011;16389;50.126;8.450;2023-03-21T02:11:43;2.00;;;1.25;;
29412;SDS011;16389;50.126;8.450;2023-03-21T02:14:14;2.90;;;1.60;;
29412;SDS011;16389;50.126;8.450;2023-03-21T02:19:44;5.43;;;1.52;;
29412;SDS011;16389;50.126;8.450;2023-03-21T02:28:03;3.95;;;1.42;;
29412;SDS011;16389;50.126;8.450;2023-03-21T02:31:03;2.42;;;1.50;;
29412;SDS011;16389;50.126;8.450;2023-03-21T02:39:19;8.02;;;1.48;;
29412;SDS011;16389;50.126;8.450;2023-03-21T02:45:08;6.10;;;1.75;;
29412;SDS011;16389;50.126;8.450;2023-03-21T02:47:41;3.13;;;1.47;;
29412;SDS011;16389;50.126;8.450;2023-03-21T02:50:14;3.55;;;2.15;;
29412;SDS011;16389;50.126;8.450;2023-03-21T02:52:44;5.20;;;2.55;;
29412;SDS011;16389;50.126;8.450;2023-03-21T02:55:13;6.07;;;1.40;;
29412;SDS011;16389;50.126;8.450;2023-03-21T02:57:43;3.58;;;1.30;;
29412;SDS011;16389;50.126;8.450;2023-03-21T03:00:12;4.05;;;1.60;;
29412;SDS011;16389;50.126;8.450;2023-03-21T03:05:41;4.00;;;1.65;;
29412;SDS011;16389;50.126;8.450;2023-03-21T03:08:19;3.00;;;1.90;;
29412;SDS011;16389;50.126;8.450;2023-03-21T03:19:24;3.65;;;1.65;;
29412;SDS011;16389;50.126;8.450;2023-03-21T03:21:57;9.70;;;1.90;;
29412;SDS011;16389;50.126;8.450;2023-03-21T03:24:27;2.60;;;2.40;;
29412;SDS011;16389;50.126;8.450;2023-03-21T03:27:12;2.08;;;1.85;;
29412;SDS011;16389;50.126;8.450;2023-03-21T03:29:44;6.47;;;1.88;;
29412;SDS011;16389;50.126;8.450;2023-03-21T03:32:14;3.50;;;1.27;;
29412;SDS011;16389;50.126;8.450;2023-03-21T03:34:43;3.50;;;1.80;;
29412;SDS011;16389;50.126;8.450;2023-03-21T03:37:15;2.70;;;1.88;;
29412;SDS011;16389;50.126;8.450;2023-03-21T03:39:59;1.75;;;1.10;;
29412;SDS011;16389;50.126;8.450;2023-03-21T03:42:35;1.98;;;1.38;;
29412;SDS011;16389;50.126;8.450;2023-03-21T03:45:06;4.75;;;1.13;;
29412;SDS011;16389;50.126;8.450;2023-03-21T03:50:12;4.63;;;1.65;;
29412;SDS011;16389;50.126;8.450;2023-03-21T03:52:49;2.80;;;1.77;;
29412;SDS011;16389;50.126;8.450;2023-03-21T03:55:19;2.65;;;1.45;;
29412;SDS011;16389;50.126;8.450;2023-03-21T03:57:47;2.13;;;1.30;;
29412;SDS011;16389;50.126;8.450;2023-03-21T04:00:13;2.95;;;1.30;;
29412;SDS011;16389;50.126;8.450;2023-03-21T04:02:41;1.95;;;1.45;;
29412;SDS011;16389;50.126;8.450;2023-03-21T04:05:07;3.42;;;1.25;;
29412;SDS011;16389;50.126;8.450;2023-03-21T04:07:33;6.22;;;1.65;;
29412;SDS011;16389;50.126;8.450;2023-03-21T04:09:59;1.67;;;1.20;;
29412;SDS011;16389;50.126;8.450;2023-03-21T04:12:25;2.85;;;1.15;;
29412;SDS011;16389;50.126;8.450;2023-03-21T04:14:51;5.70;;;3.38;;
29412;SDS011;16389;50.126;8.450;2023-03-21T04:17:16;2.67;;;1.40;;
29412;SDS011;16389;50.126;8.450;2023-03-21T04:19:42;5.10;;;1.60;;
29412;SDS011;16389;50.126;8.450;2023-03-21T04:22:09;5.00;;;1.40;;
29412;SDS011;16389;50.126;8.450;2023-03-21T04:24:35;3.60;;;1.83;;
29412;SDS011;16389;50.126;8.450;2023-03-21T04:27:01;2.67;;;1.20;;
29412;SDS011;16389;50.126;8.450;2023-03-21T04:29:27;2.53;;;1.40;;
29412;SDS011;16389;50.126;8.450;2023-03-21T04:31:53;2.10;;;1.60;;
29412;SDS011;16389;50.126;8.450;2023-03-21T04:34:19;4.15;;;1.58;;
29412;SDS011;16389;50.126;8.450;2023-03-21T04:36:47;2.28;;;1.60;;
29412;SDS011;16389;50.126;8.450;2023-03-21T04:39:14;3.80;;;1.25;;
29412;SDS011;16389;50.126;8.450;2023-03-21T04:41:41;2.42;;;1.38;;
29412;SDS011;16389;50.126;8.450;2023-03-21T04:44:08;2.25;;;1.58;;
29412;SDS011;16389;50.126;8.450;2023-03-21T04:46:35;1.17;;;1.08;;
29412;SDS011;16389;50.126;8.450;2023-03-21T04:49:02;4.50;;;1.73;;
29412;SDS011;16389;50.126;8.450;2023-03-21T04:51:28;4.57;;;2.17;;
29412;SDS011;16389;50.126;8.450;2023-03-21T04:53:54;1.95;;;1.55;;
29412;SDS011;16389;50.126;8.450;2023-03-21T04:56:24;4.65;;;1.40;;
29412;SDS011;16389;50.126;8.450;2023-03-21T04:59:00;4.93;;;1.40;;
29412;SDS011;16389;50.126;8.450;2023-03-21T05:01:31;5.15;;;1.20;;
29412;SDS011;16389;50.126;8.450;2023-03-21T05:03:58;1.88;;;1.10;;
29412;SDS011;16389;50.126;8.450;2023-03-21T05:06:25;5.53;;;1.83;;
29412;SDS011;16389;50.126;8.450;2023-03-21T05:08:52;5.03;;;1.67;;
29412;SDS011;16389;50.126;8.450;2023-03-21T05:11:18;2.47;;;1.33;;
29412;SDS011;16389;50.126;8.450;2023-03-21T05:13:44;7.35;;;1.55;;
29412;SDS011;16389;50.126;8.450;2023-03-21T05:16:10;1.75;;;1.20;;
29412;SDS011;16389;50.126;8.450;2023-03-21T05:18:35;2.28;;;1.35;;
29412;SDS011;16389;50.126;8.450;2023-03-21T05:21:02;2.05;;;1.08;;
29412;SDS011;16389;50.126;8.450;2023-03-21T05:23:32;1.90;;;1.23;;
29412;SDS011;16389;50.126;8.450;2023-03-21T05:26:03;2.40;;;2.05;;
29412;SDS011;16389;50.126;8.450;2023-03-21T05:28:30;1.75;;;1.05;;
29412;SDS011;16389;50.126;8.450;2023-03-21T05:30:56;4.22;;;1.15;;
29412;SDS011;16389;50.126;8.450;2023-03-21T05:33:21;2.38;;;1.13;;
29412;SDS011;16389;50.126;8.450;2023-03-21T05:35:49;5.32;;;1.77;;
29412;SDS011;16389;50.126;8.450;2023-03-21T05:38:15;1.90;;;1.40;;
29412;SDS011;16389;50.126;8.450;2023-03-21T05:40:44;1.60;;;1.50;;
29412;SDS011;16389;50.126;8.450;2023-03-21T05:43:14;2.03;;;1.45;;
29412;SDS011;16389;50.126;8.450;2023-03-21T05:45:40;2.78;;;1.08;;
29412;SDS011;16389;50.126;8.450;2023-03-21T05:48:06;2.90;;;1.35;;
29412;SDS011;16389;50.126;8.450;2023-03-21T05:50:31;4.03;;;1.30;;
29412;SDS011;16389;50.126;8.450;2023-03-21T05:52:57;2.13;;;1.20;;
29412;SDS011;16389;50.126;8.450;2023-03-21T05:55:23;1.90;;;1.10;;
29412;SDS011;16389;50.126;8.450;2023-03-21T05:57:49;4.35;;;1.67;;
29412;SDS011;16389;50.126;8.450;2023-03-21T06:00:15;2.78;;;1.50;;
29412;SDS011;16389;50.126;8.450;2023-03-21T06:02:41;4.00;;;1.40;;
29412;SDS011;16389;50.126;8.450;2023-03-21T06:05:08;1.77;;;1.20;;
29412;SDS011;16389;50.126;8.450;2023-03-21T06:07:34;2.25;;;1.35;;
29412;SDS011;16389;50.126;8.450;2023-03-21T06:10:01;1.80;;;1.20;;
29412;SDS011;16389;50.126;8.450;2023-03-21T06:12:27;2.13;;;1.38;;
29412;SDS011;16389;50.126;8.450;2023-03-21T06:14:53;3.25;;;1.50;;
29412;SDS011;16389;50.126;8.450;2023-03-21T06:17:18;5.65;;;1.77;;
29412;SDS011;16389;50.126;8.450;2023-03-21T06:19:44;6.88;;;2.15;;
29412;SDS011;16389;50.126;8.450;2023-03-21T06:22:10;3.28;;;1.85;;
29412;SDS011;16389;50.126;8.450;2023-03-21T06:24:35;3.38;;;1.90;;
29412;SDS011;16389;50.126;8.450;2023-03-21T06:27:01;4.10;;;1.65;;
29412;SDS011;16389;50.126;8.450;2023-03-21T06:29:27;2.80;;;1.70;;
29412;SDS011;16389;50.126;8.450;2023-03-21T06:31:52;5.15;;;2.17;;
29412;SDS011;16389;50.126;8.450;2023-03-21T06:34:18;3.17;;;1.80;;
29412;SDS011;16389;50.126;8.450;2023-03-21T06:36:44;2.55;;;1.70;;
29412;SDS011;16389;50.126;8.450;2023-03-21T06:39:11;3.13;;;1.95;;
29412;SDS011;16389;50.126;8.450;2023-03-21T06:41:37;3.42;;;1.70;;
29412;SDS011;16389;50.126;8.450;2023-03-21T06:44:03;6.78;;;2.03;;
29412;SDS011;16389;50.126;8.450;2023-03-21T06:46:29;1.88;;;1.60;;
29412;SDS011;16389;50.126;8.450;2023-03-21T06:48:54;6.05;;;2.45;;
29412;SDS011;16389;50.126;8.450;2023-03-21T06:51:20;8.25;;;1.92;;
29412;SDS011;16389;50.126;8.450;2023-03-21T06:53:45;2.30;;;1.65;;
29412;SDS011;16389;50.126;8.450;2023-03-21T06:56:12;5.15;;;1.60;;
29412;SDS011;16389;50.126;8.450;2023-03-21T06:58:38;5.35;;;1.58;;
29412;SDS011;16389;50.126;8.450;2023-03-21T07:01:04;2.65;;;1.33;;
29412;SDS011;16389;50.126;8.450;2023-03-21T07:03:31;4.97;;;2.08;;
29412;SDS011;16389;50.126;8.450;2023-03-21T07:05:57;4.05;;;2.25;;
29412;SDS011;16389;50.126;8.450;2023-03-21T07:08:23;3.95;;;1.88;;
29412;SDS011;16389;50.126;8.450;2023-03-21T07:10:48;2.97;;;1.77;;
29412;SDS011;16389;50.126;8.450;2023-03-21T07:13:14;5.57;;;1.70;;
29412;SDS011;16389;50.126;8.450;2023-03-21T07:15:41;4.15;;;1.98;;
29412;SDS011;16389;50.126;8.450;2023-03-21T07:18:07;7.95;;;1.73;;
29412;SDS011;16389;50.126;8.450;2023-03-21T07:20:34;2.45;;;1.35;;
29412;SDS011;16389;50.126;8.450;2023-03-21T07:23:02;4.10;;;2.13;;
29412;SDS011;16389;50.126;8.450;2023-03-21T07:25:28;4.10;;;2.03;;
29412;SDS011;16389;50.126;8.450;2023-03-21T07:27:54;3.00;;;1.90;;
29412;SDS011;16389;50.126;8.450;2023-03-21T07:30:19;2.88;;;1.60;;
29412;SDS011;16389;50.126;8.450;2023-03-21T07:32:45;3.55;;;1.70;;
29412;SDS011;16389;50.126;8.450;2023-03-21T07:35:12;4.35;;;1.75;;
29412;SDS011;16389;50.126;8.450;2023-03-21T07:37:40;2.85;;;1.70;;
29412;SDS011;16389;50.126;8.450;2023-03-21T07:40:06;3.47;;;2.38;;
29412;SDS011;16389;50.126;8.450;2023-03-21T07:42:34;4.20;;;1.85;;
29412;SDS011;16389;50.126;8.450;2023-03-21T07:45:00;3.47;;;1.85;;
29412;SDS011;16389;50.126;8.450;2023-03-21T07:47:26;6.80;;;2.42;;
29412;SDS011;16389;50.126;8.450;2023-03-21T07:49:53;3.40;;;2.33;;
29412;SDS011;16389;50.126;8.450;2023-03-21T07:52:19;3.65;;;2.75;;
29412;SDS011;16389;50.126;8.450;2023-03-21T07:54:44;5.30;;;2.17;;
29412;SDS011;16389;50.126;8.450;2023-03-21T07:57:10;4.07;;;1.73;;
29412;SDS011;16389;50.126;8.450;2023-03-21T07:59:35;5.00;;;1.98;;
29412;SDS011;16389;50.126;8.450;2023-03-21T08:02:01;3.30;;;1.88;;
29412;SDS011;16389;50.126;8.450;2023-03-21T08:04:27;2.88;;;1.55;;
29412;SDS011;16389;50.126;8.450;2023-03-21T08:06:53;3.75;;;2.25;;
29412;SDS011;16389;50.126;8.450;2023-03-21T08:09:18;3.47;;;1.67;;
29412;SDS011;16389;50.126;8.450;2023-03-21T08:11:44;8.73;;;1.92;;
29412;SDS011;16389;50.126;8.450;2023-03-21T08:14:10;3.63;;;1.48;;
29412;SDS011;16389;50.126;8.450;2023-03-21T08:16:35;2.20;;;1.70;;
29412;SDS011;16389;50.126;8.450;2023-03-21T08:19:01;3.88;;;2.15;;
29412;SDS011;16389;50.126;8.450;2023-03-21T08:21:27;2.42;;;1.70;;
29412;SDS011;16389;50.126;8.450;2023-03-21T08:23:53;4.05;;;2.03;;
29412;SDS011;16389;50.126;8.450;2023-03-21T08:26:18;9.02;;;2.53;;
29412;SDS011;16389;50.126;8.450;2023-03-21T08:28:44;6.15;;;1.67;;
29412;SDS011;16389;50.126;8.450;2023-03-21T08:31:10;3.80;;;1.95;;
29412;SDS011;16389;50.126;8.450;2023-03-21T08:33:37;5.70;;;1.70;;
29412;SDS011;16389;50.126;8.450;2023-03-21T08:36:03;6.53;;;2.28;;
29412;SDS011;16389;50.126;8.450;2023-03-21T08:38:29;5.22;;;2.22;;
29412;SDS011;16389;50.126;8.450;2023-03-21T08:40:57;4.97;;;2.25;;
29412;SDS011;16389;50.126;8.450;2023-03-21T08:43:24;3.10;;;2.40;;
29412;SDS011;16389;50.126;8.450;2023-03-21T08:45:50;10.25;;;2.22;;
29412;SDS011;16389;50.126;8.450;2023-03-21T08:48:16;11.15;;;2.22;;
29412;SDS011;16389;50.126;8.450;2023-03-21T08:50:42;4.30;;;2.40;;
29412;SDS011;16389;50.126;8.450;2023-03-21T08:53:08;3.90;;;2.00;;
29412;SDS011;16389;50.126;8.450;2023-03-21T08:55:33;4.20;;;2.22;;
29412;SDS011;16389;50.126;8.450;2023-03-21T08:57:59;2.53;;;2.03;;
29412;SDS011;16389;50.126;8.450;2023-03-21T09:00:26;6.55;;;1.77;;
29412;SDS011;16389;50.126;8.450;2023-03-21T09:02:52;2.88;;;2.08;;
29412;SDS011;16389;50.126;8.450;2023-03-21T09:05:19;2.85;;;1.92;;
29412;SDS011;16389;50.126;8.450;2023-03-21T09:07:46;5.18;;;1.55;;
29412;SDS011;16389;50.126;8.450;2023-03-21T09:10:15;6.93;;;1.77;;
29412;SDS011;16389;50.126;8.450;2023-03-21T09:12:42;6.53;;;1.88;;
29412;SDS011;16389;50.126;8.450;2023-03-21T09:15:08;4.15;;;1.60;;
29412;SDS011;16389;50.126;8.450;2023-03-21T09:17:36;3.47;;;1.90;;
29412;SDS011;16389;50.126;8.450;2023-03-21T09:20:08;3.85;;;1.88;;
29412;SDS011;16389;50.126;8.450;2023-03-21T09:22:38;2.40;;;1.60;;
29412;SDS011;16389;50.126;8.450;2023-03-21T09:25:04;3.45;;;1.67;;
29412;SDS011;16389;50.126;8.450;2023-03-21T09:27:32;4.38;;;1.88;;
29412;SDS011;16389;50.126;8.450;2023-03-21T09:29:58;4.05;;;1.88;;
29412;SDS011;16389;50.126;8.450;2023-03-21T09:32:25;4.85;;;1.67;;
29412;SDS011;16389;50.126;8.450;2023-03-21T09:34:52;2.90;;;2.17;;
29412;SDS011;16389;50.126;8.450;2023-03-21T09:37:19;2.75;;;1.40;;
29412;SDS011;16389;50.126;8.450;2023-03-21T09:39:45;3.78;;;1.30;;
29412;SDS011;16389;50.126;8.450;2023-03-21T09:45:02;3.95;;;1.75;;
29412;SDS011;16389;50.126;8.450;2023-03-21T09:47:43;1.63;;;1.27;;
29412;SDS011;16389;50.126;8.450;2023-03-21T09:52:55;2.75;;;1.58;;
29412;SDS011;16389;50.126;8.450;2023-03-21T09:55:29;2.70;;;1.63;;
29412;SDS011;16389;50.126;8.450;2023-03-21T09:58:18;2.45;;;1.67;;
29412;SDS011;16389;50.126;8.450;2023-03-21T10:00:52;2.78;;;1.65;;
29412;SDS011;16389;50.126;8.450;2023-03-21T10:03:29;5.00;;;2.88;;
29412;SDS011;16389;50.126;8.450;2023-03-21T10:05:59;4.47;;;1.80;;
29412;SDS011;16389;50.126;8.450;2023-03-21T10:08:38;3.97;;;1.52;;
29412;SDS011;16389;50.126;8.450;2023-03-21T10:11:09;4.30;;;1.80;;
29412;SDS011;16389;50.126;8.450;2023-03-21T10:14:02;4.50;;;2.20;;
29412;SDS011;16389;50.126;8.450;2023-03-21T10:16:33;3.15;;;1.98;;
29412;SDS011;16389;50.126;8.450;2023-03-21T10:21:28;4.78;;;2.25;;
29412;SDS011;16389;50.126;8.450;2023-03-21T10:23:56;3.15;;;2.08;;
29412;SDS011;16389;50.126;8.450;2023-03-21T10:26:24;5.75;;;2.10;;
29412;SDS011;16389;50.126;8.450;2023-03-21T10:28:53;3.33;;;2.30;;
29412;SDS011;16389;50.126;8.450;2023-03-21T10:31:22;3.83;;;2.25;;
29412;SDS011;16389;50.126;8.450;2023-03-21T10:33:51;5.60;;;2.27;;
29412;SDS011;16389;50.126;8.450;2023-03-21T10:36:20;5.13;;;2.35;;
29412;SDS011;16389;50.126;8.450;2023-03-21T10:38:51;2.40;;;2.10;;
29412;SDS011;16389;50.126;8.450;2023-03-21T10:41:20;8.82;;;2.83;;
29412;SDS011;16389;50.126;8.450;2023-03-21T10:43:46;7.72;;;2.65;;
29412;SDS011;16389;50.126;8.450;2023-03-21T10:46:27;5.22;;;2.67;;
29412;SDS011;16389;50.126;8.450;2023-03-21T10:48:53;3.90;;;2.63;;
29412;SDS011;16389;50.126;8.450;2023-03-21T10:51:20;5.63;;;3.90;;
29412;SDS011;16389;50.126;8.450;2023-03-21T10:56:22;7.15;;;3.55;;
29412;SDS011;16389;50.126;8.450;2023-03-21T10:58:52;8.80;;;3.10;;
29412;SDS011;16389;50.126;8.450;2023-03-21T11:01:27;7.65;;;3.40;;
29412;SDS011;16389;50.126;8.450;2023-03-21T11:04:00;8.57;;;2.40;;
29412;SDS011;16389;50.126;8.450;2023-03-21T11:06:54;6.30;;;2.60;;
29412;SDS011;16389;50.126;8.450;2023-03-21T11:09:49;5.82;;;3.38;;
29412;SDS011;16389;50.126;8.450;2023-03-21T11:12:16;4.10;;;2.40;;
29412;SDS011;16389;50.126;8.450;2023-03-21T11:14:52;5.10;;;2.85;;
29412;SDS011;16389;50.126;8.450;2023-03-21T11:17:19;7.50;;;2.70;;
29412;SDS011;16389;50.126;8.450;2023-03-21T11:19:46;11.13;;;3.10;;
29412;SDS011;16389;50.126;8.450;2023-03-21T11:22:14;8.00;;;3.17;;
29412;SDS011;16389;50.126;8.450;2023-03-21T11:24:42;7.95;;;2.65;;
29412;SDS011;16389;50.126;8.450;2023-03-21T11:27:20;8.30;;;2.78;;
29412;SDS011;16389;50.126;8.450;2023-03-21T11:29:47;3.78;;;3.13;;
29412;SDS011;16389;50.126;8.450;2023-03-21T11:37:31;4.47;;;2.88;;
29412;SDS011;16389;50.126;8.450;2023-03-21T11:40:26;8.90;;;2.00;;
29412;SDS011;16389;50.126;8.450;2023-03-21T11:42:58;4.63;;;2.45;;
29412;SDS011;16389;50.126;8.450;2023-03-21T11:45:28;3.60;;;2.60;;
29412;SDS011;16389;50.126;8.450;2023-03-21T11:47:59;4.07;;;2.17;;
29412;SDS011;16389;50.126;8.450;2023-03-21T11:53:11;3.22;;;2.65;;
29412;SDS011;16389;50.126;8.450;2023-03-21T11:55:40;11.80;;;5.47;;
29412;SDS011;16389;50.126;8.450;2023-03-21T12:07:24;7.15;;;2.33;;
29412;SDS011;16389;50.126;8.450;2023-03-21T12:10:19;7.70;;;2.55;;
29412;SDS011;16389;50.126;8.450;2023-03-21T12:13:00;3.63;;;2.20;;
29412;SDS011;16389;50.126;8.450;2023-03-21T12:15:41;3.08;;;2.20;;
29412;SDS011;16389;50.126;8.450;2023-03-21T12:18:14;2.93;;;2.53;;
29412;SDS011;16389;50.126;8.450;2023-03-21T12:20:55;4.85;;;2.78;;
29412;SDS011;16389;50.126;8.450;2023-03-21T12:26:57;4.30;;;1.95;;
29412;SDS011;16389;50.126;8.450;2023-03-21T12:42:51;2.33;;;1.85;;
29412;SDS011;16389;50.126;8.450;2023-03-21T12:45:47;6.75;;;2.13;;
29412;SDS011;16389;50.126;8.450;2023-03-21T12:48:21;3.83;;;2.30;;
29412;SDS011;16389;50.126;8.450;2023-03-21T12:51:00;3.97;;;2.10;;
29412;SDS011;16389;50.126;8.450;2023-03-21T12:56:04;6.03;;;2.53;;
29412;SDS011;16389;50.126;8.450;2023-03-21T12:58:44;2.83;;;2.15;;
29412;SDS011;16389;50.126;8.450;2023-03-21T13:01:14;3.53;;;2.15;;
29412;SDS011;16389;50.126;8.450;2023-03-21T13:03:43;5.53;;;2.15;;
29412;SDS011;16389;50.126;8.450;2023-03-21T13:06:15;6.78;;;2.50;;
29412;SDS011;16389;50.126;8.450;2023-03-21T13:08:43;10.30;;;2.72;;
29412;SDS011;16389;50.126;8.450;2023-03-21T13:11:16;2.67;;;2.42;;
29412;SDS011;16389;50.126;8.450;2023-03-21T13:13:56;3.30;;;2.42;;
29412;SDS011;16389;50.126;8.450;2023-03-21T13:16:32;5.75;;;2.63;;
29412;SDS011;16389;50.126;8.450;2023-03-21T13:35:01;4.18;;;2.92;;
29412;SDS011;16389;50.126;8.450;2023-03-21T13:37:48;7.30;;;2.60;;
29412;SDS011;16389;50.126;8.450;2023-03-21T13:40:49;3.58;;;2.78;;
29412;SDS011;16389;50.126;8.450;2023-03-21T13:59:16;5.55;;;3.08;;
29412;SDS011;16389;50.126;8.450;2023-03-21T14:01:56;4.85;;;3.22;;
29412;SDS011;16389;50.126;8.450;2023-03-21T14:04:25;6.03;;;3.42;;
29412;SDS011;16389;50.126;8.450;2023-03-21T14:06:54;5.28;;;4.18;;
29412;SDS011;16389;50.126;8.450;2023-03-21T14:09:24;5.15;;;3.28;;
29412;SDS011;16389;50.126;8.450;2023-03-21T14:11:57;5.63;;;3.22;;
29412;SDS011;16389;50.126;8.450;2023-03-21T14:14:25;6.32;;;4.35;;
29412;SDS011;16389;50.126;8.450;2023-03-21T14:16:57;5.32;;;4.63;;
29412;SDS011;16389;50.126;8.450;2023-03-21T14:19:32;10.52;;;4.00;;
29412;SDS011;16389;50.126;8.450;2023-03-21T14:21:57;8.05;;;3.60;;
29412;SDS011;16389;50.126;8.450;2023-03-21T14:24:23;6.97;;;4.18;;
29412;SDS011;16389;50.126;8.450;2023-03-21T14:26:53;4.25;;;3.30;;
29412;SDS011;16389;50.126;8.450;2023-03-21T14:29:27;6.75;;;3.10;;
29412;SDS011;16389;50.126;8.450;2023-03-21T14:31:55;6.20;;;2.90;;
29412;SDS011;16389;50.126;8.450;2023-03-21T14:34:22;7.13;;;3.15;;
29412;SDS011;16389;50.126;8.450;2023-03-21T14:36:49;4.07;;;3.05;;
29412;SDS011;16389;50.126;8.450;2023-03-21T14:39:17;10.32;;;3.17;;
29412;SDS011;16389;50.126;8.450;2023-03-21T14:41:51;7.53;;;3.45;;
29412;SDS011;16389;50.126;8.450;2023-03-21T14:44:34;8.10;;;2.92;;
29412;SDS011;16389;50.126;8.450;2023-03-21T14:47:06;3.40;;;2.90;;
29412;SDS011;16389;50.126;8.450;2023-03-21T14:49:40;3.58;;;2.42;;
29412;SDS011;16389;50.126;8.450;2023-03-21T14:52:08;3.88;;;3.15;;
29412;SDS011;16389;50.126;8.450;2023-03-21T14:54:38;3.28;;;2.97;;
29412;SDS011;16389;50.126;8.450;2023-03-21T14:57:07;4.45;;;2.95;;
29412;SDS011;16389;50.126;8.450;2023-03-21T14:59:38;3.35;;;2.72;;
29412;SDS011;16389;50.126;8.450;2023-03-21T15:02:11;4.03;;;3.58;;
29412;SDS011;16389;50.126;8.450;2023-03-21T15:04:38;8.70;;;3.53;;
29412;SDS011;16389;50.126;8.450;2023-03-21T15:07:04;11.15;;;3.47;;
29412;SDS011;16389;50.126;8.450;2023-03-21T15:09:33;7.20;;;2.80;;
29412;SDS011;16389;50.126;8.450;2023-03-21T15:11:59;5.60;;;3.38;;
29412;SDS011;16389;50.126;8.450;2023-03-21T15:14:30;4.05;;;2.90;;
29412;SDS011;16389;50.126;8.450;2023-03-21T15:16:58;6.63;;;2.83;;
29412;SDS011;16389;50.126;8.450;2023-03-21T15:19:31;7.25;;;2.88;;
29412;SDS011;16389;50.126;8.450;2023-03-21T15:22:00;5.75;;;4.20;;
29412;SDS011;16389;50.126;8.450;2023-03-21T15:24:39;3.65;;;3.22;;
29412;SDS011;16389;50.126;8.450;2023-03-21T15:27:16;5.57;;;3.35;;
29412;SDS011;16389;50.126;8.450;2023-03-21T15:29:43;4.95;;;2.70;;
29412;SDS011;16389;50.126;8.450;2023-03-21T15:32:13;5.22;;;4.70;;
29412;SDS011;16389;50.126;8.450;2023-03-21T15:34:41;6.10;;;3.53;;
29412;SDS011;16389;50.126;8.450;2023-03-21T15:37:13;7.25;;;3.90;;
29412;SDS011;16389;50.126;8.450;2023-03-21T15:39:41;4.68;;;3.53;;
29412;SDS011;16389;50.126;8.450;2023-03-21T15:45:00;5.25;;;3.17;;
29412;SDS011;16389;50.126;8.450;2023-03-21T15:53:00;9.38;;;3.38;;
29412;SDS011;16389;50.126;8.450;2023-03-21T15:58:09;8.10;;;3.47;;
29412;SDS011;16389;50.126;8.450;2023-03-21T16:00:40;7.80;;;3.80;;
29412;SDS011;16389;50.126;8.450;2023-03-21T16:03:20;3.85;;;3.38;;
29412;SDS011;16389;50.126;8.450;2023-03-21T16:08:35;8.98;;;4.18;;
29412;SDS011;16389;50.126;8.450;2023-03-21T16:11:29;6.45;;;3.08;;
29412;SDS011;16389;50.126;8.450;2023-03-21T16:13:53;4.88;;;3.42;;
29412;SDS011;16389;50.126;8.450;2023-03-21T16:16:24;5.85;;;3.35;;
29412;SDS011;16389;50.126;8.450;2023-03-21T16:18:52;7.72;;;3.65;;
29412;SDS011;16389;50.126;8.450;2023-03-21T16:21:19;4.65;;;3.65;;
29412;SDS011;16389;50.126;8.450;2023-03-21T16:23:47;3.75;;;3.35;;
29412;SDS011;16389;50.126;8.450;2023-03-21T16:26:17;14.52;;;3.80;;
29412;SDS011;16389;50.126;8.450;2023-03-21T16:28:52;5.55;;;4.32;;
29412;SDS011;16389;50.126;8.450;2023-03-21T16:31:19;4.57;;;3.47;;
29412;SDS011;16389;50.126;8.450;2023-03-21T16:33:46;8.40;;;4.47;;
29412;SDS011;16389;50.126;8.450;2023-03-21T16:36:16;7.65;;;3.95;;
29412;SDS011;16389;50.126;8.450;2023-03-21T16:38:47;6.13;;;3.90;;
29412;SDS011;16389;50.126;8.450;2023-03-21T16:41:15;6.53;;;4.35;;
29412;SDS011;16389;50.126;8.450;2023-03-21T16:43:41;6.75;;;4.15;;
29412;SDS011;16389;50.126;8.450;2023-03-21T16:46:17;10.10;;;3.42;;
29412;SDS011;16389;50.126;8.450;2023-03-21T16:48:49;8.57;;;5.40;;
29412;SDS011;16389;50.126;8.450;2023-03-21T16:51:17;5.90;;;4.05;;
29412;SDS011;16389;50.126;8.450;2023-03-21T16:53:45;10.50;;;4.07;;
29412;SDS011;16389;50.126;8.450;2023-03-21T16:56:35;7.50;;;5.78;;
29412;SDS011;16389;50.126;8.450;2023-03-21T17:01:28;5.60;;;3.78;;
29412;SDS011;16389;50.126;8.450;2023-03-21T17:03:54;8.65;;;3.78;;
29412;SDS011;16389;50.126;8.450;2023-03-21T17:06:25;9.52;;;4.88;;
29412;SDS011;16389;50.126;8.450;2023-03-21T17:08:52;6.35;;;4.70;;